Time;durP1;ratioP1;P1;durP2;ratioP2;P2;SDS_P1;SDS_P2;PMS_P1;PMS_P2;Temp;Humidity;BMP_temperature;BMP_pressure;BME280_temperature;BME280_humidity;BME280_pressure;Samples;Min_cycle;Max_cycle;Signal;HPM_P1;HPM_P2
2023/01/16 00:02:13;;;;;;;2.10;0.65;;;5.90;82.80;;;;;;5041746;28;20037;-59
2023/01/16 00:04:40;;;;;;;3.22;0.93;;;5.90;82.90;;;;;;5046605;28;20627;-58
2023/01/16 00:07:12;;;;;;;2.88;0.70;;;5.90;83.00;;;;;;5051049;28;20048;-58
2023/01/16 00:09:40;;;;;;;4.82;0.80;;;5.90;82.90;;;;;;5056397;28;20055;-58
2023/01/16 00:12:07;;;;;;;3.83;0.90;;;5.90;82.90;;;;;;5037213;28;20053;-57
2023/01/16 00:14:41;;;;;;;1.95;0.60;;;5.90;82.90;;;;;;5041803;28;20510;-56
2023/01/16 00:17:12;;;;;;;6.32;1.27;;;5.90;82.60;;;;;;5045865;28;20485;-58
2023/01/16 00:19:39;;;;;;;5.18;0.77;;;5.90;82.70;;;;;;5048877;28;20045;-57
2023/01/16 00:22:06;;;;;;;2.78;0.90;;;5.90;82.70;;;;;;5049885;28;20141;-57
2023/01/16 00:24:33;;;;;;;2.22;0.60;;;5.90;82.80;;;;;;5052518;28;20041;-57
2023/01/16 00:27:00;;;;;;;2.55;0.65;;;5.90;83.00;;;;;;5050868;28;20048;-58
2023/01/16 00:29:33;;;;;;;3.47;0.95;;;5.90;83.30;;;;;;5049619;28;21728;-58
2023/01/16 00:32:00;;;;;;;4.53;0.88;;;5.90;83.40;;;;;;5056712;28;20071;-59
2023/01/16 00:34:31;;;;;;;2.15;0.60;;;5.90;83.60;;;;;;5057603;28;20049;-59
2023/01/16 00:36:57;;;;;;;4.07;0.88;;;5.90;83.80;;;;;;5054091;28;20041;-59
2023/01/16 00:39:24;;;;;;;3.60;0.77;;;5.90;84.00;;;;;;5045035;28;20048;-59
2023/01/16 00:41:53;;;;;;;7.03;1.10;;;5.80;84.20;;;;;;5041308;28;20090;-59
2023/01/16 00:44:20;;;;;;;3.55;0.90;;;5.80;84.30;;;;;;5048588;28;20044;-59
2023/01/16 00:46:47;;;;;;;3.55;0.93;;;5.80;84.40;;;;;;5051060;28;20124;-59
2023/01/16 00:49:13;;;;;;;5.22;1.00;;;5.80;84.40;;;;;;5042414;28;20052;-57
2023/01/16 00:51:43;;;;;;;3.15;1.00;;;5.80;84.50;;;;;;5042425;28;20053;-58
2023/01/16 00:54:10;;;;;;;3.45;0.88;;;5.80;84.70;;;;;;5053626;28;20052;-56
2023/01/16 00:56:37;;;;;;;2.92;0.90;;;5.80;84.80;;;;;;5045594;28;20566;-56
2023/01/16 00:59:04;;;;;;;2.83;0.77;;;5.80;84.90;;;;;;5051611;28;20053;-57
2023/01/16 01:01:31;;;;;;;1.70;0.70;;;5.80;84.80;;;;;;5050307;28;20049;-57
2023/01/16 01:03:59;;;;;;;3.67;0.63;;;5.80;84.80;;;;;;5053389;28;20051;-57
2023/01/16 01:06:26;;;;;;;5.55;0.70;;;5.80;84.60;;;;;;5055962;28;20487;-56
2023/01/16 01:08:57;;;;;;;2.33;0.57;;;5.80;84.60;;;;;;5048816;28;20060;-57
2023/01/16 01:11:25;;;;;;;2.03;0.88;;;5.90;84.70;;;;;;5053927;28;20402;-59
2023/01/16 01:13:59;;;;;;;1.80;0.40;;;5.80;84.80;;;;;;5051753;28;20072;-59
2023/01/16 01:16:26;;;;;;;1.95;0.57;;;5.80;84.80;;;;;;5053845;28;20519;-60
2023/01/16 01:18:53;;;;;;;2.80;0.45;;;5.80;85.00;;;;;;5047220;28;20057;-58
2023/01/16 01:21:20;;;;;;;3.53;0.77;;;5.80;85.10;;;;;;5052864;28;20076;-59
2023/01/16 01:23:47;;;;;;;2.20;0.70;;;5.80;85.30;;;;;;5049980;28;20065;-57
2023/01/16 01:26:17;;;;;;;1.67;0.57;;;5.90;85.30;;;;;;5056547;28;20049;-58
2023/01/16 01:28:44;;;;;;;3.10;0.77;;;5.80;85.20;;;;;;5048872;28;20126;-59
2023/01/16 01:31:13;;;;;;;3.65;0.63;;;5.80;85.40;;;;;;5050563;28;20052;-59
2023/01/16 01:33:40;;;;;;;3.92;0.82;;;5.80;85.30;;;;;;5044765;28;20053;-58
2023/01/16 01:36:08;;;;;;;3.50;0.60;;;5.80;85.40;;;;;;5047293;28;20044;-57
2023/01/16 01:38:35;;;;;;;2.78;0.70;;;5.80;85.50;;;;;;5050834;28;20041;-57
2023/01/16 01:41:03;;;;;;;2.45;0.70;;;5.80;85.60;;;;;;5049887;28;20042;-57
2023/01/16 01:43:43;;;;;;;4.82;0.88;;;5.80;85.60;;;;;;5041165;28;20049;-57
2023/01/16 01:46:18;;;;;;;2.05;0.88;;;5.80;85.40;;;;;;5055882;28;20049;-57
2023/01/16 01:48:48;;;;;;;2.90;0.75;;;5.80;85.40;;;;;;5057860;28;20056;-59
2023/01/16 01:51:18;;;;;;;4.43;0.70;;;5.80;85.40;;;;;;5054233;28;20120;-57
2023/01/16 01:53:49;;;;;;;3.63;1.17;;;5.80;85.20;;;;;;5049869;28;20069;-57
2023/01/16 01:56:20;;;;;;;4.57;0.80;;;5.80;85.00;;;;;;5028514;28;20049;-57
2023/01/16 01:58:54;;;;;;;4.78;0.73;;;5.80;84.60;;;;;;5046282;28;20052;-59
2023/01/16 02:01:21;;;;;;;3.53;0.93;;;5.80;84.40;;;;;;5047688;28;20060;-58
2023/01/16 02:03:52;;;;;;;4.97;0.80;;;5.90;84.10;;;;;;5055455;28;20059;-58
2023/01/16 02:06:22;;;;;;;2.50;0.77;;;5.80;83.70;;;;;;5055552;28;20132;-59
2023/01/16 02:08:53;;;;;;;2.50;0.65;;;5.90;83.70;;;;;;5056094;28;20056;-59
2023/01/16 02:11:26;;;;;;;;;;;5.80;83.70;;;;;;5057234;28;20055;-59
2023/01/16 02:13:56;;;;;;;3.85;0.80;;;5.90;83.30;;;;;;5057409;28;20367;-59
2023/01/16 02:19:16;;;;;;;5.43;1.20;;;5.80;83.40;;;;;;5040573;28;20620;-58
2023/01/16 02:22:28;;;;;;;4.93;1.20;;;5.90;83.70;;;;;;5055583;28;20051;-58
2023/01/16 02:25:28;;;;;;;4.28;1.25;;;5.90;82.90;;;;;;5049986;28;20479;-58
2023/01/16 02:28:25;;;;;;;6.38;0.90;;;5.90;82.80;;;;;;5050379;28;20045;-59
2023/01/16 02:31:22;;;;;;;2.45;0.68;;;5.80;82.80;;;;;;5056022;28;20383;-59
2023/01/16 02:34:03;;;;;;;5.15;1.23;;;5.80;83.00;;;;;;5052962;28;20045;-59
2023/01/16 02:36:42;;;;;;;3.88;1.30;;;5.80;83.10;;;;;;5041075;28;20304;-61
2023/01/16 02:39:21;;;;;;;5.15;1.67;;;5.80;82.90;;;;;;5033789;28;20522;-59
2023/01/16 02:41:53;;;;;;;4.25;1.23;;;5.80;82.80;;;;;;5031984;28;20139;-61
2023/01/16 02:44:29;;;;;;;3.75;1.05;;;5.80;82.70;;;;;;5033048;28;20996;-60
2023/01/16 02:47:06;;;;;;;5.50;1.92;;;5.80;82.80;;;;;;5043616;28;20049;-60
2023/01/16 02:49:40;;;;;;;7.53;1.98;;;5.80;82.50;;;;;;5054145;28;20065;-60
2023/01/16 02:52:14;;;;;;;8.63;2.38;;;5.80;82.60;;;;;;5054403;28;20045;-61
2023/01/16 02:54:45;;;;;;;8.15;2.25;;;5.80;82.10;;;;;;5045298;28;20060;-59
2023/01/16 02:57:15;;;;;;;;;;;5.80;82.20;;;;;;5046501;28;20037;-61
2023/01/16 02:59:43;;;;;;;5.25;1.38;;;5.80;82.00;;;;;;5044925;28;19929;-60
2023/01/16 03:02:11;;;;;;;3.67;1.23;;;5.80;81.80;;;;;;5053871;28;20044;-71
2023/01/16 03:04:48;;;;;;;4.55;1.02;;;5.80;81.80;;;;;;5031432;28;20048;-71
2023/01/16 03:07:45;;;;;;;3.13;1.13;;;5.80;81.90;;;;;;5037402;28;20049;-62
2023/01/16 03:10:27;;;;;;;5.30;0.90;;;5.80;81.70;;;;;;5056790;28;20052;-62
2023/01/16 03:13:02;;;;;;;4.85;1.30;;;5.80;81.80;;;;;;5049791;28;20523;-60
2023/01/16 03:15:34;;;;;;;4.10;1.05;;;5.80;81.60;;;;;;5050971;28;20138;-61
2023/01/16 03:18:11;;;;;;;5.32;1.40;;;5.80;81.30;;;;;;5053516;28;20052;-60
2023/01/16 03:20:50;;;;;;;5.35;1.23;;;5.80;81.10;;;;;;5054652;28;20106;-62
2023/01/16 03:23:28;;;;;;;3.15;0.90;;;5.80;81.10;;;;;;5055278;28;20040;-60
2023/01/16 03:25:59;;;;;;;3.50;1.05;;;5.80;81.00;;;;;;5054163;28;20053;-58
2023/01/16 03:28:34;;;;;;;5.20;1.33;;;5.80;81.30;;;;;;5055873;28;20061;-59
2023/01/16 03:31:10;;;;;;;3.65;1.15;;;5.80;81.30;;;;;;5053615;28;20048;-59
2023/01/16 03:33:46;;;;;;;3.65;1.25;;;5.80;81.30;;;;;;5043320;28;20054;-59
2023/01/16 03:36:22;;;;;;;6.47;1.85;;;5.80;81.20;;;;;;5053887;28;20049;-59
2023/01/16 03:38:51;;;;;;;4.47;1.50;;;5.80;81.40;;;;;;5042229;28;20480;-58
2023/01/16 03:41:23;;;;;;;4.50;1.27;;;5.80;81.40;;;;;;5038149;28;20050;-59
2023/01/16 03:43:55;;;;;;;6.10;1.50;;;5.80;81.40;;;;;;5033400;28;20048;-59
2023/01/16 03:46:27;;;;;;;4.88;1.58;;;5.80;81.20;;;;;;5029120;28;20424;-59
2023/01/16 03:48:59;;;;;;;3.80;0.95;;;5.80;81.50;;;;;;5034803;28;20045;-60
2023/01/16 03:51:29;;;;;;;3.90;0.98;;;5.80;81.30;;;;;;5035762;28;20475;-59
2023/01/16 03:54:03;;;;;;;4.13;0.90;;;5.80;81.30;;;;;;5035210;28;20525;-60
2023/01/16 03:56:35;;;;;;;4.70;1.80;;;5.80;81.30;;;;;;5021449;28;20049;-61
2023/01/16 03:59:02;;;;;;;4.82;1.00;;;5.80;81.20;;;;;;5048530;28;20065;-59
2023/01/16 04:01:37;;;;;;;2.90;0.80;;;5.80;81.20;;;;;;5050880;28;20490;-65
2023/01/16 04:04:10;;;;;;;2.53;0.70;;;5.80;81.30;;;;;;5055165;28;20476;-64
2023/01/16 04:06:44;;;;;;;2.38;0.80;;;5.80;81.20;;;;;;5055101;28;20049;-64
2023/01/16 04:09:15;;;;;;;3.20;0.98;;;5.80;81.20;;;;;;5051244;28;20049;-65
2023/01/16 04:11:44;;;;;;;4.20;1.20;;;5.80;81.10;;;;;;5056107;28;20056;-64
2023/01/16 04:14:14;;;;;;;2.97;0.95;;;5.80;81.20;;;;;;5054806;28;21006;-65
2023/01/16 04:16:42;;;;;;;3.00;0.70;;;5.80;81.30;;;;;;5055981;28;20515;-63
2023/01/16 04:19:14;;;;;;;2.35;0.70;;;5.80;81.30;;;;;;5052931;28;20037;-65
2023/01/16 04:21:44;;;;;;;4.70;0.98;;;5.80;81.40;;;;;;5056307;28;20052;-63
2023/01/16 04:24:12;;;;;;;4.55;0.80;;;5.80;81.40;;;;;;5053712;28;20041;-63
2023/01/16 04:26:39;;;;;;;3.50;1.10;;;5.80;81.40;;;;;;5053055;28;20067;-64
2023/01/16 04:29:06;;;;;;;2.35;0.95;;;5.80;81.60;;;;;;5054944;28;20055;-63
2023/01/16 04:31:32;;;;;;;3.53;1.10;;;5.80;81.50;;;;;;5057001;28;20419;-62
2023/01/16 04:33:59;;;;;;;3.30;0.77;;;5.80;81.50;;;;;;5056306;28;20048;-63
2023/01/16 04:36:27;;;;;;;4.53;0.85;;;5.80;81.30;;;;;;5055718;28;20102;-63
2023/01/16 04:38:54;;;;;;;2.65;0.88;;;5.80;81.60;;;;;;5055116;28;20041;-66
2023/01/16 04:44:19;;;;;;;3.60;0.60;;;5.80;81.30;;;;;;5048965;27;20636;-65
2023/01/16 04:46:45;;;;;;;3.53;0.77;;;5.80;81.50;;;;;;5031711;28;20049;-63
2023/01/16 04:49:12;;;;;;;2.90;0.70;;;5.70;81.10;;;;;;5030435;28;20049;-64
2023/01/16 04:51:39;;;;;;;3.55;0.70;;;5.70;81.40;;;;;;5032580;28;20053;-59
2023/01/16 04:54:07;;;;;;;4.93;0.60;;;5.70;81.20;;;;;;5030033;28;20057;-59
2023/01/16 04:56:35;;;;;;;3.33;0.75;;;5.80;81.20;;;;;;5030024;28;20058;-61
2023/01/16 04:59:02;;;;;;;3.45;0.52;;;5.70;81.30;;;;;;5022578;28;20049;-62
2023/01/16 05:01:34;;;;;;;3.42;0.60;;;5.70;81.30;;;;;;5030618;28;20041;-59
2023/01/16 05:04:01;;;;;;;4.47;0.60;;;5.70;81.40;;;;;;5029540;28;20049;-60
2023/01/16 05:06:28;;;;;;;2.63;0.57;;;5.70;81.30;;;;;;5041061;28;20041;-58
2023/01/16 05:08:55;;;;;;;2.83;0.60;;;5.80;81.20;;;;;;5050555;28;20048;-59
2023/01/16 05:11:22;;;;;;;2.28;0.50;;;5.70;81.30;;;;;;5047516;28;20045;-59
2023/01/16 05:13:49;;;;;;;3.92;0.50;;;5.70;81.20;;;;;;5047494;28;20045;-59
2023/01/16 05:16:16;;;;;;;4.40;0.60;;;5.80;81.30;;;;;;5048900;28;20040;-59
2023/01/16 05:18:47;;;;;;;3.13;0.68;;;5.70;81.30;;;;;;5039280;28;20765;-59
2023/01/16 05:21:14;;;;;;;1.85;0.57;;;5.70;81.00;;;;;;5044408;28;20053;-58
2023/01/16 05:23:41;;;;;;;3.38;0.70;;;5.70;81.30;;;;;;5046170;28;20048;-60
2023/01/16 05:26:08;;;;;;;3.17;0.57;;;5.70;81.00;;;;;;5049057;28;20063;-61
2023/01/16 05:28:36;;;;;;;2.67;0.57;;;5.70;81.00;;;;;;5050102;28;20045;-61
2023/01/16 05:31:03;;;;;;;4.05;0.80;;;5.70;81.30;;;;;;5047355;28;20415;-61
2023/01/16 05:33:30;;;;;;;3.58;0.70;;;5.70;81.40;;;;;;5045735;28;20058;-60
2023/01/16 05:35:59;;;;;;;2.67;0.70;;;5.70;81.10;;;;;;5046992;28;20076;-64
2023/01/16 05:38:25;;;;;;;4.32;0.95;;;5.70;81.20;;;;;;5049014;28;20055;-65
2023/01/16 05:40:53;;;;;;;2.28;0.70;;;5.70;81.30;;;;;;5046893;28;20043;-64
2023/01/16 05:43:20;;;;;;;3.22;1.02;;;5.70;81.30;;;;;;5050736;28;20053;-65
2023/01/16 05:45:47;;;;;;;4.00;1.08;;;5.70;81.30;;;;;;5050232;28;20060;-61
2023/01/16 05:48:14;;;;;;;3.53;0.68;;;5.70;81.10;;;;;;5046185;28;20130;-58
2023/01/16 05:50:41;;;;;;;3.80;0.70;;;5.60;81.40;;;;;;5048613;28;20455;-59
2023/01/16 05:53:09;;;;;;;2.92;0.55;;;5.70;81.40;;;;;;5044208;28;20061;-60
2023/01/16 05:55:42;;;;;;;2.63;0.70;;;5.70;81.10;;;;;;5039737;28;20403;-59
2023/01/16 05:58:10;;;;;;;4.00;0.60;;;5.70;81.10;;;;;;5036828;28;20045;-59
2023/01/16 06:00:38;;;;;;;4.68;0.88;;;5.70;81.40;;;;;;5039023;28;20065;-59
2023/01/16 06:03:04;;;;;;;3.65;0.98;;;5.60;81.00;;;;;;5030563;28;20076;-60
2023/01/16 06:05:34;;;;;;;3.03;0.73;;;5.60;81.20;;;;;;5036519;28;20064;-59
2023/01/16 06:08:01;;;;;;;1.40;0.40;;;5.60;81.10;;;;;;5032171;28;20118;-65
2023/01/16 06:10:30;;;;;;;2.80;0.60;;;5.60;81.20;;;;;;5035334;28;20048;-64
2023/01/16 06:12:57;;;;;;;3.08;1.33;;;5.60;81.30;;;;;;5033550;28;20053;-66
2023/01/16 06:15:24;;;;;;;2.58;0.55;;;5.60;81.30;;;;;;5030933;28;20061;-65
2023/01/16 06:17:53;;;;;;;3.30;1.10;;;5.60;81.00;;;;;;5029297;28;20514;-64
2023/01/16 06:20:20;;;;;;;5.55;0.90;;;5.60;81.20;;;;;;5031172;28;20092;-66
2023/01/16 06:22:47;;;;;;;4.35;0.90;;;5.50;81.20;;;;;;5033768;28;20075;-66
2023/01/16 06:25:14;;;;;;;2.38;0.57;;;5.60;81.20;;;;;;5036431;28;20042;-65
2023/01/16 06:27:42;;;;;;;2.70;0.77;;;5.60;81.10;;;;;;5037006;28;20041;-65
2023/01/16 06:30:10;;;;;;;2.00;0.57;;;5.60;81.30;;;;;;5031396;28;20052;-64
2023/01/16 06:32:37;;;;;;;3.22;1.02;;;5.60;81.10;;;;;;5032452;28;20051;-65
2023/01/16 06:35:05;;;;;;;3.78;0.98;;;5.50;81.00;;;;;;5034302;28;20507;-63
2023/01/16 06:37:32;;;;;;;3.85;1.10;;;5.50;81.10;;;;;;5033602;28;20491;-65
2023/01/16 06:39:59;;;;;;;3.88;1.48;;;5.50;80.90;;;;;;5031251;28;20551;-65
2023/01/16 06:42:32;;;;;;;2.47;0.55;;;5.50;80.70;;;;;;5035283;28;20049;-61
2023/01/16 06:45:00;;;;;;;4.03;0.65;;;5.60;81.00;;;;;;5035046;28;20057;-63
2023/01/16 06:47:28;;;;;;;2.13;0.65;;;5.50;81.00;;;;;;5032356;28;20064;-61
2023/01/16 06:49:55;;;;;;;3.15;0.68;;;5.50;80.60;;;;;;5029876;28;20049;-61
2023/01/16 06:52:22;;;;;;;3.92;0.60;;;5.50;80.70;;;;;;5030156;28;20057;-65
2023/01/16 06:54:49;;;;;;;1.77;0.43;;;5.60;80.60;;;;;;5032698;28;20065;-66
2023/01/16 06:57:16;;;;;;;2.80;0.68;;;5.50;80.60;;;;;;5032599;28;20501;-65
2023/01/16 06:59:43;;;;;;;2.15;0.60;;;5.40;80.50;;;;;;5031536;28;20042;-64
2023/01/16 07:02:11;;;;;;;4.97;0.60;;;5.40;80.40;;;;;;5032831;28;20064;-70
2023/01/16 07:04:38;;;;;;;3.42;0.70;;;5.50;80.50;;;;;;5034866;28;20053;-70
2023/01/16 07:07:05;;;;;;;1.52;0.55;;;5.40;80.30;;;;;;5029812;28;20134;-70
2023/01/16 07:09:32;;;;;;;1.88;0.50;;;5.50;80.50;;;;;;5032636;28;20053;-70
2023/01/16 07:11:59;;;;;;;2.60;0.68;;;5.50;80.40;;;;;;5032833;28;20080;-70
2023/01/16 07:22:44;;;;;;;1.23;0.50;;;5.50;80.40;;;;;;5031176;28;20072;-60
2023/01/16 07:25:15;;;;;;;3.80;0.80;;;5.50;80.70;;;;;;5036273;28;20137;-62
2023/01/16 07:27:43;;;;;;;3.15;0.55;;;5.40;80.20;;;;;;5033221;28;20049;-64
2023/01/16 07:30:12;;;;;;;3.53;0.73;;;5.50;80.40;;;;;;5017540;28;20103;-66
2023/01/16 07:32:41;;;;;;;3.15;0.68;;;5.40;80.20;;;;;;5031910;28;20037;-65
2023/01/16 07:35:08;;;;;;;3.60;0.60;;;5.40;80.50;;;;;;5032385;28;20050;-64
2023/01/16 07:37:35;;;;;;;2.95;0.80;;;5.40;80.40;;;;;;5036619;28;20045;-61
2023/01/16 07:40:03;;;;;;;2.13;0.75;;;5.30;80.60;;;;;;5033164;28;20071;-62
2023/01/16 07:42:30;;;;;;;2.88;0.80;;;5.30;80.40;;;;;;5035065;28;20045;-64
2023/01/16 07:44:57;;;;;;;4.00;0.90;;;5.40;80.70;;;;;;5031668;28;20030;-64
2023/01/16 07:47:24;;;;;;;2.08;0.68;;;5.30;80.20;;;;;;5034545;28;20053;-70
2023/01/16 07:49:52;;;;;;;4.43;0.75;;;5.30;80.40;;;;;;5033897;28;20061;-72
2023/01/16 07:52:19;;;;;;;4.25;0.90;;;5.30;80.30;;;;;;5032724;28;20046;-70
2023/01/16 07:54:46;;;;;;;2.78;0.73;;;5.40;80.20;;;;;;5034082;28;22007;-71
2023/01/16 07:57:13;;;;;;;5.40;0.90;;;5.30;80.20;;;;;;5035700;28;20050;-70
2023/01/16 07:59:40;;;;;;;4.53;1.08;;;5.30;80.20;;;;;;5031186;28;20048;-70
2023/01/16 08:02:08;;;;;;;2.92;0.88;;;5.30;80.20;;;;;;5033431;28;20057;-70
2023/01/16 08:04:35;;;;;;;3.05;0.80;;;5.30;80.20;;;;;;5033563;28;20045;-70
2023/01/16 08:07:03;;;;;;;3.95;0.80;;;5.30;80.30;;;;;;5029733;28;20053;-61
2023/01/16 08:09:34;;;;;;;3.78;0.70;;;5.30;80.30;;;;;;5023398;28;20052;-62
2023/01/16 08:12:01;;;;;;;5.10;1.20;;;5.30;80.40;;;;;;5032128;28;20050;-61
2023/01/16 08:14:28;;;;;;;2.10;0.80;;;5.30;80.60;;;;;;5024228;28;20085;-61
2023/01/16 08:16:55;;;;;;;3.83;1.05;;;5.40;80.10;;;;;;5009000;28;21028;-64
2023/01/16 08:19:22;;;;;;;3.08;0.70;;;5.40;80.20;;;;;;5026675;28;20048;-63
2023/01/16 08:21:49;;;;;;;3.33;0.65;;;5.40;80.20;;;;;;5036081;28;20037;-60
2023/01/16 08:24:18;;;;;;;2.53;0.70;;;5.40;80.20;;;;;;5033921;28;20043;-61
2023/01/16 08:26:45;;;;;;;2.20;0.50;;;5.40;80.20;;;;;;5033247;28;20081;-61
2023/01/16 08:29:12;;;;;;;1.65;0.60;;;5.50;80.30;;;;;;5021174;28;20049;-63
2023/01/16 08:31:39;;;;;;;2.15;0.60;;;5.50;80.00;;;;;;5016301;28;20049;-61
2023/01/16 08:34:06;;;;;;;2.95;0.80;;;5.50;80.10;;;;;;5033961;28;20063;-61
2023/01/16 08:36:33;;;;;;;7.47;2.38;;;5.50;79.80;;;;;;5033360;28;20049;-71
2023/01/16 08:39:00;;;;;;;9.05;3.10;;;5.50;79.90;;;;;;5032768;28;20408;-71
2023/01/16 08:52:36;;;;;;;9.02;3.55;;;5.60;79.70;;;;;;5033822;28;20087;-70
2023/01/16 08:55:04;;;;;;;6.63;2.53;;;5.70;79.70;;;;;;5033514;28;20048;-71
2023/01/16 08:57:33;;;;;;;5.60;2.35;;;5.70;79.60;;;;;;5031891;28;20054;-60
2023/01/16 09:00:00;;;;;;;6.15;2.30;;;5.70;79.50;;;;;;5027720;28;20060;-59
2023/01/16 09:02:36;;;;;;;7.53;2.70;;;5.70;78.90;;;;;;5031944;28;20037;-71
2023/01/16 09:05:02;;;;;;;8.65;3.15;;;5.70;79.20;;;;;;5015399;28;20144;-70
2023/01/16 09:07:36;;;;;;;6.47;2.58;;;5.70;78.80;;;;;;5026682;28;20124;-65
2023/01/16 09:10:04;;;;;;;6.32;2.47;;;5.70;79.20;;;;;;5035375;28;20072;-64
2023/01/16 09:15:16;;;;;;;5.13;1.95;;;5.80;78.40;;;;;;5032999;28;20065;-65
2023/01/16 09:17:43;;;;;;;6.15;2.03;;;5.70;78.70;;;;;;5027951;28;20484;-65
2023/01/16 09:20:11;;;;;;;7.43;2.55;;;5.80;78.80;;;;;;5029661;28;20514;-65
2023/01/16 09:22:38;;;;;;;6.95;2.60;;;5.80;79.00;;;;;;5029283;28;20101;-65
2023/01/16 09:25:06;;;;;;;7.13;2.35;;;5.90;78.80;;;;;;5034055;28;20067;-64
2023/01/16 09:27:34;;;;;;;6.28;2.35;;;5.80;78.60;;;;;;5032281;28;20038;-72
2023/01/16 09:30:01;;;;;;;5.28;1.98;;;5.80;78.80;;;;;;5024667;28;20049;-70
2023/01/16 09:32:28;;;;;;;4.13;1.70;;;5.90;79.00;;;;;;5032248;28;20072;-64
2023/01/16 09:34:55;;;;;;;4.45;1.85;;;5.90;78.90;;;;;;5032533;28;20046;-65
2023/01/16 09:37:22;;;;;;;6.60;2.20;;;5.90;78.90;;;;;;5035395;28;20115;-61
2023/01/16 09:39:49;;;;;;;5.55;2.20;;;6.00;78.80;;;;;;5034352;28;20056;-61
2023/01/16 09:45:22;;;;;;;4.05;1.60;;;6.10;78.50;;;;;;5035548;28;20049;-64
2023/01/16 09:47:54;;;;;;;3.85;1.52;;;6.00;78.70;;;;;;5038098;28;20053;-65
2023/01/16 09:50:29;;;;;;;3.75;1.70;;;6.00;78.70;;;;;;5040311;28;20124;-65
2023/01/16 09:58:36;;;;;;;4.90;1.30;;;6.00;78.80;;;;;;5035680;28;20111;-69
2023/01/16 10:01:08;;;;;;;4.97;1.67;;;6.00;78.50;;;;;;5037845;28;20053;-62
2023/01/16 10:03:41;;;;;;;4.18;1.17;;;5.90;78.30;;;;;;5030272;28;20063;-61
2023/01/16 10:06:20;;;;;;;3.83;1.20;;;5.90;78.20;;;;;;5047434;28;20107;-61
2023/01/16 10:08:59;;;;;;;3.45;0.77;;;5.90;78.30;;;;;;5037821;28;20073;-62
2023/01/16 10:11:33;;;;;;;1.58;0.52;;;5.90;78.30;;;;;;5032578;28;20119;-64
2023/01/16 10:14:27;;;;;;;3.08;1.20;;;5.80;78.60;;;;;;5034936;28;20076;-62
2023/01/16 10:17:05;;;;;;;3.80;1.02;;;5.80;78.60;;;;;;5037987;28;20099;-67
2023/01/16 10:19:47;;;;;;;2.30;0.65;;;5.90;78.50;;;;;;5036139;28;20053;-64
2023/01/16 10:22:30;;;;;;;2.97;0.80;;;5.90;77.20;;;;;;5036531;28;20132;-70
2023/01/16 10:25:12;;;;;;;3.78;0.73;;;5.80;78.10;;;;;;5035685;28;20049;-71
2023/01/16 10:27:46;;;;;;;1.58;0.60;;;5.80;77.60;;;;;;5035138;28;20045;-70
2023/01/16 10:30:17;;;;;;;3.15;0.55;;;5.80;78.20;;;;;;5020715;28;20056;-70
2023/01/16 10:32:51;;;;;;;2.03;0.50;;;5.80;77.90;;;;;;5035216;28;20058;-71
2023/01/16 10:35:24;;;;;;;2.80;0.60;;;5.80;78.20;;;;;;5035351;28;20073;-70
2023/01/16 10:37:51;;;;;;;2.97;0.90;;;5.80;78.20;;;;;;5035918;28;20064;-71
2023/01/16 10:40:24;;;;;;;2.33;0.73;;;5.80;78.60;;;;;;5034067;28;20045;-72
2023/01/16 10:51:30;;;;;;;6.03;1.58;;;5.80;78.80;;;;;;4992080;28;20148;-65
2023/01/16 10:53:58;;;;;;;6.47;2.67;;;5.80;79.00;;;;;;5016322;28;20049;-65
2023/01/16 10:56:26;;;;;;;7.38;2.40;;;5.70;78.90;;;;;;5034796;28;20057;-66
2023/01/16 10:58:53;;;;;;;5.35;2.15;;;5.70;79.10;;;;;;5032264;28;20048;-65
2023/01/16 11:01:23;;;;;;;4.95;1.75;;;5.80;79.20;;;;;;5036318;28;20442;-66
2023/01/16 11:03:54;;;;;;;4.13;1.17;;;5.80;79.40;;;;;;5028009;28;20445;-66
2023/01/16 11:06:21;;;;;;;;;;;5.70;79.00;;;;;;5032943;28;20060;-65
2023/01/16 11:08:50;;;;;;;3.83;0.95;;;5.70;79.30;;;;;;5031410;28;20462;-64
2023/01/16 11:19:42;;;;;;;1.30;0.70;;;5.60;79.80;;;;;;5029204;28;20510;-65
2023/01/16 11:22:24;;;;;;;2.60;0.90;;;5.50;80.10;;;;;;5036885;28;20052;-66
2023/01/16 11:24:58;;;;;;;4.38;0.80;;;5.50;80.50;;;;;;5031684;28;20081;-65
2023/01/16 11:27:29;;;;;;;2.97;0.85;;;5.50;80.60;;;;;;5028032;28;20046;-70
2023/01/16 11:29:58;;;;;;;1.75;0.60;;;5.40;81.00;;;;;;5019595;28;20049;-72
2023/01/16 11:32:28;;;;;;;2.42;0.70;;;5.40;81.10;;;;;;5028449;28;20488;-72
2023/01/16 11:34:58;;;;;;;2.85;1.00;;;5.40;81.70;;;;;;5033650;28;20432;-69
2023/01/16 11:37:29;;;;;;;4.03;1.30;;;5.30;81.80;;;;;;5036297;28;20050;-61
2023/01/16 11:40:06;;;;;;;3.08;1.30;;;5.30;82.00;;;;;;5032096;28;20041;-61
2023/01/16 11:50:53;;;;;;;4.15;1.25;;;5.30;82.50;;;;;;5034959;28;20049;-62
2023/01/16 11:53:19;;;;;;;3.13;0.93;;;5.30;82.60;;;;;;5035080;28;20045;-60
2023/01/16 11:56:02;;;;;;;2.40;0.70;;;5.30;82.90;;;;;;5027817;28;20553;-66
2023/01/16 11:58:43;;;;;;;1.83;0.80;;;5.30;82.60;;;;;;5036038;28;20052;-66
2023/01/16 12:01:16;;;;;;;2.03;0.57;;;5.30;82.80;;;;;;5028977;28;20049;-60
2023/01/16 12:04:05;;;;;;;2.83;0.90;;;5.30;82.90;;;;;;5034314;28;20045;-61
2023/01/16 12:06:44;;;;;;;2.25;0.60;;;5.30;83.10;;;;;;5030140;28;20099;-61
2023/01/16 12:09:41;;;;;;;2.17;0.70;;;5.30;83.00;;;;;;5032498;28;20045;-61
2023/01/16 12:15:05;;;;;;;2.13;0.60;;;5.40;83.10;;;;;;5029560;28;20491;-72
2023/01/16 12:17:38;;;;;;;;;;;5.30;83.20;;;;;;5033164;28;20048;-61
2023/01/16 12:20:27;;;;;;;2.28;0.70;;;5.40;83.00;;;;;;5031597;28;19921;-60
2023/01/16 12:23:19;;;;;;;2.47;0.80;;;5.40;82.80;;;;;;5030663;28;20057;-63
2023/01/16 12:25:55;;;;;;;3.80;0.80;;;5.50;82.70;;;;;;5033638;28;20080;-60
2023/01/16 12:28:32;;;;;;;3.83;0.73;;;5.40;82.70;;;;;;5034314;28;21452;-60
2023/01/16 12:31:21;;;;;;;2.65;0.95;;;5.40;82.60;;;;;;5017109;28;20057;-65
2023/01/16 12:33:59;;;;;;;1.75;0.80;;;5.50;82.60;;;;;;5029214;28;20057;-65
2023/01/16 12:36:34;;;;;;;1.35;0.52;;;5.50;82.50;;;;;;5027586;28;20038;-71
2023/01/16 12:39:13;;;;;;;2.20;0.70;;;5.60;82.50;;;;;;5035901;28;20049;-71
2023/01/16 12:44:46;;;;;;;1.95;0.60;;;5.60;82.30;;;;;;5012805;28;20056;-70
2023/01/16 12:47:36;;;;;;;3.38;0.82;;;5.60;82.30;;;;;;5012450;28;20056;-70
2023/01/16 12:50:13;;;;;;;3.58;0.68;;;5.60;82.20;;;;;;5009814;28;20049;-72
2023/01/16 12:52:57;;;;;;;1.77;0.50;;;5.70;82.20;;;;;;5007745;28;20052;-61
2023/01/16 12:55:35;;;;;;;2.28;0.60;;;5.70;82.10;;;;;;5013755;28;20045;-61
2023/01/16 12:58:12;;;;;;;3.97;0.65;;;5.70;82.00;;;;;;5014755;28;20052;-61
2023/01/16 13:00:43;;;;;;;2.25;0.60;;;5.70;82.00;;;;;;5014764;28;20053;-71
2023/01/16 13:03:21;;;;;;;2.22;0.60;;;5.70;81.70;;;;;;5013286;28;20053;-71
2023/01/16 13:05:50;;;;;;;1.25;0.47;;;5.70;81.90;;;;;;5010528;28;20041;-72
2023/01/16 13:08:22;;;;;;;3.28;0.60;;;5.70;81.80;;;;;;5017633;28;20069;-70
2023/01/16 13:13:45;;;;;;;1.50;0.60;;;5.70;81.80;;;;;;5018707;28;20057;-71
2023/01/16 13:16:17;;;;;;;2.58;0.80;;;5.70;81.80;;;;;;5020657;28;20145;-60
2023/01/16 13:18:50;;;;;;;4.13;0.95;;;5.70;81.90;;;;;;5020241;28;20042;-61
2023/01/16 13:21:22;;;;;;;3.20;0.77;;;5.70;82.00;;;;;;5016405;28;20046;-62
2023/01/16 13:23:53;;;;;;;1.42;0.52;;;5.70;82.20;;;;;;5012050;28;20041;-62
2023/01/16 13:26:24;;;;;;;2.90;1.05;;;5.70;82.10;;;;;;5019010;28;20057;-60
2023/01/16 13:28:54;;;;;;;;;;;5.70;82.00;;;;;;5020660;28;20053;-60
2023/01/16 13:31:31;;;;;;;2.60;0.63;;;5.80;82.00;;;;;;5002167;28;19922;-61
2023/01/16 13:34:04;;;;;;;3.00;1.05;;;5.70;81.80;;;;;;5018643;28;20100;-61
2023/01/16 13:37:03;;;;;;;3.05;0.90;;;5.80;81.90;;;;;;5017203;28;20057;-65
2023/01/16 13:39:57;;;;;;;4.60;1.13;;;5.80;82.10;;;;;;5019314;28;20045;-65
2023/01/16 13:42:28;;;;;;;3.38;1.15;;;5.90;81.80;;;;;;4996494;28;20041;-65
2023/01/16 13:47:43;;;;;;;3.15;0.98;;;6.00;81.90;;;;;;5036760;28;19948;-61
2023/01/16 13:50:20;;;;;;;3.00;1.02;;;6.00;81.80;;;;;;5036183;28;20059;-62
2023/01/16 13:52:47;;;;;;;3.05;0.90;;;6.00;81.70;;;;;;5033979;28;20049;-69
2023/01/16 13:55:30;;;;;;;3.90;1.00;;;6.10;81.70;;;;;;5037139;28;20127;-71
2023/01/16 13:58:09;;;;;;;2.35;0.82;;;6.10;81.60;;;;;;5033189;28;20069;-69
2023/01/16 14:00:38;;;;;;;2.03;0.75;;;6.00;81.50;;;;;;5032863;28;21158;-70
2023/01/16 14:03:22;;;;;;;2.38;0.75;;;6.00;81.60;;;;;;5033679;28;20044;-70
2023/01/16 14:05:51;;;;;;;2.70;0.82;;;6.00;81.70;;;;;;5022912;28;20049;-70
2023/01/16 14:11:40;;;;;;;2.90;0.90;;;5.90;81.60;;;;;;5036000;28;20045;-70
2023/01/16 14:17:15;;;;;;;3.00;1.00;;;6.00;81.70;;;;;;5036685;28;20124;-70
2023/01/16 14:19:52;;;;;;;3.15;0.85;;;5.90;81.50;;;;;;5038917;28;20127;-70
2023/01/16 14:25:09;;;;;;;2.72;0.80;;;5.90;81.50;;;;;;5022201;28;20784;-72
2023/01/16 14:27:40;;;;;;;1.95;0.63;;;5.90;81.70;;;;;;5035369;28;20041;-71
2023/01/16 14:30:18;;;;;;;1.98;0.60;;;5.90;81.60;;;;;;5032801;28;20049;-71
2023/01/16 14:32:48;;;;;;;1.35;0.50;;;5.90;81.60;;;;;;5035143;28;20117;-70
2023/01/16 14:35:18;;;;;;;2.17;0.70;;;6.00;81.40;;;;;;5036883;28;20055;-70
2023/01/16 14:37:54;;;;;;;2.15;0.68;;;5.90;81.30;;;;;;5038892;28;20052;-65
2023/01/16 14:55:12;;;;;;;3.03;0.60;;;5.90;81.20;;;;;;5036103;28;20081;-65
2023/01/16 14:55:51;;;;;;;3.38;1.20;;;5.80;81.20;;;;;;5012248;28;20049;-62